sensor_id;sensor_type;location;lat;lon;timestamp;temperature;humidity
22212;DHT22;11275;52.488;13.462;2023-02-08T00:00:15;-0.60;99.90
22212;DHT22;11275;52.488;13.462;2023-02-08T00:02:41;-0.60;99.90
22212;DHT22;11275;52.488;13.462;2023-02-08T00:05:07;-0.70;99.90
22212;DHT22;11275;52.488;13.462;2023-02-08T00:07:32;-0.80;99.90
22212;DHT22;11275;52.488;13.462;2023-02-08T00:09:58;-0.90;99.90
22212;DHT22;11275;52.488;13.462;2023-02-08T00:12:23;-0.90;99.90
22212;DHT22;11275;52.488;13.462;2023-02-08T00:14:49;-0.90;99.90
22212;DHT22;11275;52.488;13.462;2023-02-08T00:17:14;-0.90;99.90
22212;DHT22;11275;52.488;13.462;2023-02-08T00:19:40;-0.80;99.90
22212;DHT22;11275;52.488;13.462;2023-02-08T00:22:05;-0.90;99.90
22212;DHT22;11275;52.488;13.462;2023-02-08T00:24:31;-1.00;99.90
22212;DHT22;11275;52.488;13.462;2023-02-08T00:26:56;-1.00;99.90
22212;DHT22;11275;52.488;13.462;2023-02-08T00:29:22;-1.00;99.90
22212;DHT22;11275;52.488;13.462;2023-02-08T00:31:47;-1.00;99.90
22212;DHT22;11275;52.488;13.462;2023-02-08T00:34:13;-0.90;99.90
22212;DHT22;11275;52.488;13.462;2023-02-08T00:36:38;-0.90;99.90
22212;DHT22;11275;52.488;13.462;2023-02-08T00:39:04;-0.90;99.90
22212;DHT22;11275;52.488;13.462;2023-02-08T00:41:30;-0.80;99.90
22212;DHT22;11275;52.488;13.462;2023-02-08T00:43:55;-0.80;99.90
22212;DHT22;11275;52.488;13.462;2023-02-08T00:46:21;-0.90;99.90
22212;DHT22;11275;52.488;13.462;2023-02-08T00:48:46;-0.80;99.90
22212;DHT22;11275;52.488;13.462;2023-02-08T00:51:12;-0.80;99.90
22212;DHT22;11275;52.488;13.462;2023-02-08T00:53:39;-0.80;99.90
22212;DHT22;11275;52.488;13.462;2023-02-08T00:56:05;-0.90;99.90
22212;DHT22;11275;52.488;13.462;2023-02-08T09:00:58;-1.00;99.90
22212;DHT22;11275;52.488;13.462;2023-02-08T09:03:25;-1.00;99.90
22212;DHT22;11275;52.488;13.462;2023-02-08T09:05:51;-0.80;99.90
22212;DHT22;11275;52.488;13.462;2023-02-08T09:08:16;-0.80;99.90
22212;DHT22;11275;52.488;13.462;2023-02-08T09:10:42;-0.80;99.90
22212;DHT22;11275;52.488;13.462;2023-02-08T09:13:08;-0.60;99.90
22212;DHT22;11275;52.488;13.462;2023-02-08T09:15:39;-0.50;99.90
22212;DHT22;11275;52.488;13.462;2023-02-08T09:18:09;-0.50;99.90
22212;DHT22;11275;52.488;13.462;2023-02-08T09:20:37;-0.40;99.90
22212;DHT22;11275;52.488;13.462;2023-02-08T09:23:03;-0.20;99.90
22212;DHT22;11275;52.488;13.462;2023-02-08T09:25:47;-0.30;99.90
22212;DHT22;11275;52.488;13.462;2023-02-08T09:28:15;-0.40;99.90
22212;DHT22;11275;52.488;13.462;2023-02-08T09:30:47;-0.40;99.90
22212;DHT22;11275;52.488;13.462;2023-02-08T09:33:26;-0.30;99.90
22212;DHT22;11275;52.488;13.462;2023-02-08T09:35:56;-0.30;99.90
22212;DHT22;11275;52.488;13.462;2023-02-08T09:38:22;-0.20;99.90
22212;DHT22;11275;52.488;13.462;2023-02-08T09:43:46;-0.20;99.90
22212;DHT22;11275;52.488;13.462;2023-02-08T09:46:23;-0.40;99.90
22212;DHT22;11275;52.488;13.462;2023-02-08T09:48:49;-0.40;99.90
22212;DHT22;11275;52.488;13.462;2023-02-08T09:53:43;-0.30;99.90
22212;DHT22;11275;52.488;13.462;2023-02-08T09:56:12;-0.10;99.90
22212;DHT22;11275;52.488;13.462;2023-02-08T09:58:44;0.00;99.90
22212;DHT22;11275;52.488;13.462;2023-02-08T10:03:44;0.10;99.90
22212;DHT22;11275;52.488;13.462;2023-02-08T10:06:11;0.10;99.90
22212;DHT22;11275;52.488;13.462;2023-02-08T10:08:38;0.20;99.90
22212;DHT22;11275;52.488;13.462;2023-02-08T10:14:12;0.40;99.90
22212;DHT22;11275;52.488;13.462;2023-02-08T10:16:48;0.50;99.90
22212;DHT22;11275;52.488;13.462;2023-02-08T10:21:59;0.40;99.90
22212;DHT22;11275;52.488;13.462;2023-02-08T10:24:33;0.50;99.90
22212;DHT22;11275;52.488;13.462;2023-02-08T10:27:13;0.60;99.90
22212;DHT22;11275;52.488;13.462;2023-02-08T10:29:47;0.50;99.90
22212;DHT22;11275;52.488;13.462;2023-02-08T10:37:15;0.90;99.90
22212;DHT22;11275;52.488;13.462;2023-02-08T10:39:41;0.80;99.90
22212;DHT22;11275;52.488;13.462;2023-02-08T10:42:11;0.90;99.90
22212;DHT22;11275;52.488;13.462;2023-02-08T10:44:49;0.90;99.90
22212;DHT22;11275;52.488;13.462;2023-02-08T10:49:43;1.00;99.90
22212;DHT22;11275;52.488;13.462;2023-02-08T10:52:12;1.10;99.90
22212;DHT22;11275;52.488;13.462;2023-02-08T10:54:38;1.70;99.90
22212;DHT22;11275;52.488;13.462;2023-02-08T10:57:05;2.40;99.90
22212;DHT22;11275;52.488;13.462;2023-02-08T10:59:47;2.10;99.90
22212;DHT22;11275;52.488;13.462;2023-02-08T11:02:18;1.90;99.90
22212;DHT22;11275;52.488;13.462;2023-02-08T11:08:03;1.60;99.90
22212;DHT22;11275;52.488;13.462;2023-02-08T11:10:29;1.50;99.90
22212;DHT22;11275;52.488;13.462;2023-02-08T11:15:48;1.40;99.90
22212;DHT22;11275;52.488;13.462;2023-02-08T11:20:46;1.60;99.90
22212;DHT22;11275;52.488;13.462;2023-02-08T11:23:18;1.60;99.90
22212;DHT22;11275;52.488;13.462;2023-02-08T11:25:44;1.60;99.90
22212;DHT22;11275;52.488;13.462;2023-02-08T11:28:24;1.70;99.90
22212;DHT22;11275;52.488;13.462;2023-02-08T11:30:53;1.80;99.90
22212;DHT22;11275;52.488;13.462;2023-02-08T11:33:19;1.80;99.90
22212;DHT22;11275;52.488;13.462;2023-02-08T11:36:00;1.80;99.90
22212;DHT22;11275;52.488;13.462;2023-02-08T11:38:27;1.80;99.90
22212;DHT22;11275;52.488;13.462;2023-02-08T11:40:56;1.80;99.90
22212;DHT22;11275;52.488;13.462;2023-02-08T11:43:25;1.80;99.90
22212;DHT22;11275;52.488;13.462;2023-02-08T11:45:51;1.90;99.90
22212;DHT22;11275;52.488;13.462;2023-02-08T11:50:52;2.00;99.90
22212;DHT22;11275;52.488;13.462;2023-02-08T11:53:24;1.90;99.90
22212;DHT22;11275;52.488;13.462;2023-02-08T11:58:37;2.10;99.90
22212;DHT22;11275;52.488;13.462;2023-02-08T12:01:19;2.00;99.90
22212;DHT22;11275;52.488;13.462;2023-02-08T12:03:45;2.00;99.90
22212;DHT22;11275;52.488;13.462;2023-02-08T12:09:08;2.00;99.90
22212;DHT22;11275;52.488;13.462;2023-02-08T12:11:45;2.20;99.90
22212;DHT22;11275;52.488;13.462;2023-02-08T12:21:45;2.40;99.90
22212;DHT22;11275;52.488;13.462;2023-02-08T12:37:27;2.50;99.90
22212;DHT22;11275;52.488;13.462;2023-02-08T12:43:23;2.50;99.90
22212;DHT22;11275;52.488;13.462;2023-02-08T12:55:46;2.70;99.90
22212;DHT22;11275;52.488;13.462;2023-02-08T13:00:45;2.70;99.90
22212;DHT22;11275;52.488;13.462;2023-02-08T13:03:19;2.60;99.90
22212;DHT22;11275;52.488;13.462;2023-02-08T13:05:47;2.70;99.90
22212;DHT22;11275;52.488;13.462;2023-02-08T13:08:18;2.70;99.90
22212;DHT22;11275;52.488;13.462;2023-02-08T13:10:48;2.70;99.90
22212;DHT22;11275;52.488;13.462;2023-02-08T13:13:19;2.70;99.90
22212;DHT22;11275;52.488;13.462;2023-02-08T13:15:47;2.70;99.90
22212;DHT22;11275;52.488;13.462;2023-02-08T13:18:18;2.70;99.90
22212;DHT22;11275;52.488;13.462;2023-02-08T13:23:24;2.70;99.90
22212;DHT22;11275;52.488;13.462;2023-02-08T13:25:51;2.70;99.90
22212;DHT22;11275;52.488;13.462;2023-02-08T13:28:21;2.60;99.90
22212;DHT22;11275;52.488;13.462;2023-02-08T13:30:55;2.70;99.90
22212;DHT22;11275;52.488;13.462;2023-02-08T13:33:28;2.60;99.90
22212;DHT22;11275;52.488;13.462;2023-02-08T13:35:57;2.70;99.90
22212;DHT22;11275;52.488;13.462;2023-02-08T13:38:29;2.80;99.90
22212;DHT22;11275;52.488;13.462;2023-02-08T13:43:34;2.70;99.90
22212;DHT22;11275;52.488;13.462;2023-02-08T13:46:01;2.70;99.90
22212;DHT22;11275;52.488;13.462;2023-02-08T13:48:27;2.70;99.90
22212;DHT22;11275;52.488;13.462;2023-02-08T13:51:06;2.70;99.90
22212;DHT22;11275;52.488;13.462;2023-02-08T14:04:38;2.70;99.90
22212;DHT22;11275;52.488;13.462;2023-02-08T14:07:05;2.70;99.90
22212;DHT22;11275;52.488;13.462;2023-02-08T14:12:19;2.70;99.90
22212;DHT22;11275;52.488;13.462;2023-02-08T14:15:33;2.70;99.90
22212;DHT22;11275;52.488;13.462;2023-02-08T14:17:34;2.80;99.90
22212;DHT22;11275;52.488;13.462;2023-02-08T14:20:01;2.80;99.90
22212;DHT22;11275;52.488;13.462;2023-02-08T14:22:31;2.70;99.90
22212;DHT22;11275;52.488;13.462;2023-02-08T14:25:17;2.80;99.90
22212;DHT22;11275;52.488;13.462;2023-02-08T14:27:57;2.60;99.90
22212;DHT22;11275;52.488;13.462;2023-02-08T14:30:25;2.50;99.90
22212;DHT22;11275;52.488;13.462;2023-02-08T14:32:52;2.50;99.90
22212;DHT22;11275;52.488;13.462;2023-02-08T14:35:22;2.50;99.90
22212;DHT22;11275;52.488;13.462;2023-02-08T14:37:49;2.50;99.90
22212;DHT22;11275;52.488;13.462;2023-02-08T14:45:35;2.50;99.90
22212;DHT22;11275;52.488;13.462;2023-02-08T14:50:33;2.50;99.90
22212;DHT22;11275;52.488;13.462;2023-02-08T14:53:02;2.50;99.90
22212;DHT22;11275;52.488;13.462;2023-02-08T14:55:44;2.50;99.90
22212;DHT22;11275;52.488;13.462;2023-02-08T14:58:23;2.50;99.90
22212;DHT22;11275;52.488;13.462;2023-02-08T15:00:50;2.50;99.90
22212;DHT22;11275;52.488;13.462;2023-02-08T15:03:16;2.60;99.90
22212;DHT22;11275;52.488;13.462;2023-02-08T15:05:45;2.50;99.90
22212;DHT22;11275;52.488;13.462;2023-02-08T15:08:18;2.40;99.90
22212;DHT22;11275;52.488;13.462;2023-02-08T15:10:44;2.40;99.90
22212;DHT22;11275;52.488;13.462;2023-02-08T15:15:44;2.40;99.90
22212;DHT22;11275;52.488;13.462;2023-02-08T15:18:20;2.40;99.90
22212;DHT22;11275;52.488;13.462;2023-02-08T15:21:06;2.50;99.90
22212;DHT22;11275;52.488;13.462;2023-02-08T15:23:32;2.50;99.90
22212;DHT22;11275;52.488;13.462;2023-02-08T15:25:59;2.40;99.90
22212;DHT22;11275;52.488;13.462;2023-02-08T15:28:26;2.30;99.90
22212;DHT22;11275;52.488;13.462;2023-02-08T15:30:54;2.30;99.90
22212;DHT22;11275;52.488;13.462;2023-02-08T15:33:21;2.30;99.90
22212;DHT22;11275;52.488;13.462;2023-02-08T15:38:38;2.30;99.90
22212;DHT22;11275;52.488;13.462;2023-02-08T15:41:09;2.30;99.90
22212;DHT22;11275;52.488;13.462;2023-02-08T15:43:36;2.20;99.90
22212;DHT22;11275;52.488;13.462;2023-02-08T15:46:03;2.10;99.90
22212;DHT22;11275;52.488;13.462;2023-02-08T15:48:29;2.00;99.90
22212;DHT22;11275;52.488;13.462;2023-02-08T15:50:56;2.00;99.90
22212;DHT22;11275;52.488;13.462;2023-02-08T15:53:22;1.80;99.90
22212;DHT22;11275;52.488;13.462;2023-02-08T15:55:49;1.80;99.90
22212;DHT22;11275;52.488;13.462;2023-02-08T15:58:18;1.70;99.90
22212;DHT22;11275;52.488;13.462;2023-02-08T16:00:53;1.70;99.90
22212;DHT22;11275;52.488;13.462;2023-02-08T16:03:20;1.70;99.90
22212;DHT22;11275;52.488;13.462;2023-02-08T16:05:48;1.70;99.90
22212;DHT22;11275;52.488;13.462;2023-02-08T16:08:17;1.60;99.90
22212;DHT22;11275;52.488;13.462;2023-02-08T16:10:45;1.70;99.90
22212;DHT22;11275;52.488;13.462;2023-02-08T16:13:20;1.80;99.90
22212;DHT22;11275;52.488;13.462;2023-02-08T16:15:48;1.70;99.90
22212;DHT22;11275;52.488;13.462;2023-02-08T16:20:59;1.60;99.90
22212;DHT22;11275;52.488;13.462;2023-02-08T16:23:28;1.50;99.90
22212;DHT22;11275;52.488;13.462;2023-02-08T16:25:54;1.40;99.90
22212;DHT22;11275;52.488;13.462;2023-02-08T16:30:52;1.40;99.90
22212;DHT22;11275;52.488;13.462;2023-02-08T16:33:19;1.40;99.90
22212;DHT22;11275;52.488;13.462;2023-02-08T16:35:44;1.50;99.90
22212;DHT22;11275;52.488;13.462;2023-02-08T16:38:12;1.50;99.90
22212;DHT22;11275;52.488;13.462;2023-02-08T16:40:49;1.70;99.90
22212;DHT22;11275;52.488;13.462;2023-02-08T16:43:22;1.70;99.90
22212;DHT22;11275;52.488;13.462;2023-02-08T16:48:33;1.70;99.90
22212;DHT22;11275;52.488;13.462;2023-02-08T16:51:01;1.60;99.90
22212;DHT22;11275;52.488;13.462;2023-02-08T16:53:27;1.70;99.90
22212;DHT22;11275;52.488;13.462;2023-02-08T16:55:53;1.60;99.90
22212;DHT22;11275;52.488;13.462;2023-02-08T16:58:19;1.50;99.90
22212;DHT22;11275;52.488;13.462;2023-02-08T17:00:47;1.40;99.90
22212;DHT22;11275;52.488;13.462;2023-02-08T17:03:12;1.40;99.90
22212;DHT22;11275;52.488;13.462;2023-02-08T17:05:38;1.40;99.90
22212;DHT22;11275;52.488;13.462;2023-02-08T17:08:05;1.30;99.90
22212;DHT22;11275;52.488;13.462;2023-02-08T17:10:32;1.30;99.90
22212;DHT22;11275;52.488;13.462;2023-02-08T17:12:58;1.40;99.90
22212;DHT22;11275;52.488;13.462;2023-02-08T17:15:24;1.40;99.90
22212;DHT22;11275;52.488;13.462;2023-02-08T17:17:50;1.30;99.90
22212;DHT22;11275;52.488;13.462;2023-02-08T17:20:20;1.30;99.90
22212;DHT22;11275;52.488;13.462;2023-02-08T17:22:47;1.40;99.90
22212;DHT22;11275;52.488;13.462;2023-02-08T17:25:13;1.30;99.90
22212;DHT22;11275;52.488;13.462;2023-02-08T17:27:47;1.30;99.90
22212;DHT22;11275;52.488;13.462;2023-02-08T17:30:19;1.30;99.90
22212;DHT22;11275;52.488;13.462;2023-02-08T17:32:45;1.30;99.90
22212;DHT22;11275;52.488;13.462;2023-02-08T17:35:14;1.40;99.90
22212;DHT22;11275;52.488;13.462;2023-02-08T17:37:45;1.30;99.90
22212;DHT22;11275;52.488;13.462;2023-02-08T17:40:11;1.30;99.90
22212;DHT22;11275;52.488;13.462;2023-02-08T17:42:37;1.20;99.90
22212;DHT22;11275;52.488;13.462;2023-02-08T17:45:02;1.00;99.90
22212;DHT22;11275;52.488;13.462;2023-02-08T17:47:28;0.90;99.90
22212;DHT22;11275;52.488;13.462;2023-02-08T17:49:54;0.90;99.90
22212;DHT22;11275;52.488;13.462;2023-02-08T17:52:21;0.90;99.90
22212;DHT22;11275;52.488;13.462;2023-02-08T17:54:46;1.00;99.90
22212;DHT22;11275;52.488;13.462;2023-02-08T17:57:12;1.00;99.90
22212;DHT22;11275;52.488;13.462;2023-02-08T17:59:38;1.00;99.90
22212;DHT22;11275;52.488;13.462;2023-02-08T18:02:03;1.00;99.90
22212;DHT22;11275;52.488;13.462;2023-02-08T18:04:29;0.90;99.90
22212;DHT22;11275;52.488;13.462;2023-02-08T18:06:54;0.80;99.90
22212;DHT22;11275;52.488;13.462;2023-02-08T18:09:20;0.80;99.90
22212;DHT22;11275;52.488;13.462;2023-02-08T18:11:46;0.80;99.90
22212;DHT22;11275;52.488;13.462;2023-02-08T18:14:11;0.90;99.90
22212;DHT22;11275;52.488;13.462;2023-02-08T18:16:37;0.90;99.90
22212;DHT22;11275;52.488;13.462;2023-02-08T18:19:02;0.80;99.90
22212;DHT22;11275;52.488;13.462;2023-02-08T18:21:28;0.70;99.90
22212;DHT22;11275;52.488;13.462;2023-02-08T18:24:03;0.70;99.90
22212;DHT22;11275;52.488;13.462;2023-02-08T18:26:30;0.70;99.90
22212;DHT22;11275;52.488;13.462;2023-02-08T18:28:58;0.70;99.90
22212;DHT22;11275;52.488;13.462;2023-02-08T18:31:23;0.70;99.90
22212;DHT22;11275;52.488;13.462;2023-02-08T18:33:50;0.80;99.90
22212;DHT22;11275;52.488;13.462;2023-02-08T18:36:16;0.80;99.90
22212;DHT22;11275;52.488;13.462;2023-02-08T18:38:43;0.80;99.90
22212;DHT22;11275;52.488;13.462;2023-02-08T18:41:13;0.80;99.90
22212;DHT22;11275;52.488;13.462;2023-02-08T18:43:39;0.70;99.90
22212;DHT22;11275;52.488;13.462;2023-02-08T18:46:06;0.70;99.90
22212;DHT22;11275;52.488;13.462;2023-02-08T18:48:34;0.70;99.90
22212;DHT22;11275;52.488;13.462;2023-02-08T18:51:00;0.70;99.90
22212;DHT22;11275;52.488;13.462;2023-02-08T18:53:27;0.70;99.90
22212;DHT22;11275;52.488;13.462;2023-02-08T18:55:53;0.80;99.90
22212;DHT22;11275;52.488;13.462;2023-02-08T18:58:20;0.80;99.90
22212;DHT22;11275;52.488;13.462;2023-02-08T19:00:45;0.70;99.90
22212;DHT22;11275;52.488;13.462;2023-02-08T19:03:11;0.70;99.90
22212;DHT22;11275;52.488;13.462;2023-02-08T19:05:37;0.70;99.90
22212;DHT22;11275;52.488;13.462;2023-02-08T19:08:03;0.70;99.90
22212;DHT22;11275;52.488;13.462;2023-02-08T19:10:28;0.70;99.90
22212;DHT22;11275;52.488;13.462;2023-02-08T19:12:54;0.70;99.90
22212;DHT22;11275;52.488;13.462;2023-02-08T19:15:20;0.60;99.90
22212;DHT22;11275;52.488;13.462;2023-02-08T19:17:45;0.50;99.90
22212;DHT22;11275;52.488;13.462;2023-02-08T19:20:11;0.50;99.90
22212;DHT22;11275;52.488;13.462;2023-02-08T19:22:36;0.50;99.90
22212;DHT22;11275;52.488;13.462;2023-02-08T19:25:02;0.60;99.90
22212;DHT22;11275;52.488;13.462;2023-02-08T19:27:28;0.60;99.90
22212;DHT22;11275;52.488;13.462;2023-02-08T19:29:53;0.70;99.90
22212;DHT22;11275;52.488;13.462;2023-02-08T19:32:21;0.60;99.90
22212;DHT22;11275;52.488;13.462;2023-02-08T19:34:46;0.60;99.90
22212;DHT22;11275;52.488;13.462;2023-02-08T19:37:12;0.60;99.90
22212;DHT22;11275;52.488;13.462;2023-02-08T19:39:37;0.50;99.90
22212;DHT22;11275;52.488;13.462;2023-02-08T19:42:03;0.40;99.90
22212;DHT22;11275;52.488;13.462;2023-02-08T19:44:29;0.50;99.90
22212;DHT22;11275;52.488;13.462;2023-02-08T19:46:54;0.50;99.90
22212;DHT22;11275;52.488;13.462;2023-02-08T19:49:20;0.50;99.90
22212;DHT22;11275;52.488;13.462;2023-02-08T19:51:46;0.50;99.90
22212;DHT22;11275;52.488;13.462;2023-02-08T19:54:13;0.40;99.90
22212;DHT22;11275;52.488;13.462;2023-02-08T19:56:39;0.50;99.90
22212;DHT22;11275;52.488;13.462;2023-02-08T19:59:06;0.50;99.90
22212;DHT22;11275;52.488;13.462;2023-02-08T20:01:32;0.40;99.90
22212;DHT22;11275;52.488;13.462;2023-02-08T20:03:59;0.50;99.90
22212;DHT22;11275;52.488;13.462;2023-02-08T20:06:30;0.40;99.90
22212;DHT22;11275;52.488;13.462;2023-02-08T20:08:56;0.50;99.90
22212;DHT22;11275;52.488;13.462;2023-02-08T20:11:25;0.50;99.90
22212;DHT22;11275;52.488;13.462;2023-02-08T20:13:52;0.40;99.90
22212;DHT22;11275;52.488;13.462;2023-02-08T20:16:18;0.50;99.90
22212;DHT22;11275;52.488;13.462;2023-02-08T20:18:44;0.40;99.90
22212;DHT22;11275;52.488;13.462;2023-02-08T20:21:10;0.30;99.90
22212;DHT22;11275;52.488;13.462;2023-02-08T20:23:35;0.10;99.90
22212;DHT22;11275;52.488;13.462;2023-02-08T20:26:06;0.00;99.90
22212;DHT22;11275;52.488;13.462;2023-02-08T20:28:32;0.00;99.90
22212;DHT22;11275;52.488;13.462;2023-02-08T20:30:57;0.00;99.90
22212;DHT22;11275;52.488;13.462;2023-02-08T20:33:23;-0.10;99.90
22212;DHT22;11275;52.488;13.462;2023-02-08T20:35:49;-0.10;99.90
22212;DHT22;11275;52.488;13.462;2023-02-08T20:38:14;-0.10;99.90
22212;DHT22;11275;52.488;13.462;2023-02-08T20:40:39;0.00;99.90
22212;DHT22;11275;52.488;13.462;2023-02-08T20:43:05;-0.10;99.90
22212;DHT22;11275;52.488;13.462;2023-02-08T20:45:31;-0.10;99.90
22212;DHT22;11275;52.488;13.462;2023-02-08T20:47:56;0.00;99.90
22212;DHT22;11275;52.488;13.462;2023-02-08T20:50:21;-0.10;99.90
22212;DHT22;11275;52.488;13.462;2023-02-08T20:52:47;-0.20;99.90
22212;DHT22;11275;52.488;13.462;2023-02-08T20:55:13;-0.20;99.90
22212;DHT22;11275;52.488;13.462;2023-02-08T20:57:39;-0.20;99.90
22212;DHT22;11275;52.488;13.462;2023-02-08T21:00:04;-0.20;99.90
22212;DHT22;11275;52.488;13.462;2023-02-08T21:02:30;-0.30;99.90
22212;DHT22;11275;52.488;13.462;2023-02-08T21:04:55;-0.40;99.90
22212;DHT22;11275;52.488;13.462;2023-02-08T21:07:21;-0.40;99.90
22212;DHT22;11275;52.488;13.462;2023-02-08T21:09:46;-0.40;99.90
22212;DHT22;11275;52.488;13.462;2023-02-08T21:12:12;-0.40;99.90
22212;DHT22;11275;52.488;13.462;2023-02-08T21:14:38;-0.30;99.90
22212;DHT22;11275;52.488;13.462;2023-02-08T21:17:03;-0.30;99.90
22212;DHT22;11275;52.488;13.462;2023-02-08T21:19:29;-0.30;99.90
22212;DHT22;11275;52.488;13.462;2023-02-08T21:21:56;-0.30;99.90
22212;DHT22;11275;52.488;13.462;2023-02-08T21:24:22;-0.20;99.90
22212;DHT22;11275;52.488;13.462;2023-02-08T21:29:27;-0.20;99.90
22212;DHT22;11275;52.488;13.462;2023-02-08T21:31:53;-0.20;99.90
22212;DHT22;11275;52.488;13.462;2023-02-08T21:34:20;-0.20;99.90
22212;DHT22;11275;52.488;13.462;2023-02-08T21:36:45;-0.30;99.90
22212;DHT22;11275;52.488;13.462;2023-02-08T21:39:11;-0.20;99.90
22212;DHT22;11275;52.488;13.462;2023-02-08T21:41:37;-0.30;99.90
22212;DHT22;11275;52.488;13.462;2023-02-08T21:44:03;-0.30;99.90
22212;DHT22;11275;52.488;13.462;2023-02-08T21:46:29;-0.40;99.90
22212;DHT22;11275;52.488;13.462;2023-02-08T21:48:55;-0.40;99.90
22212;DHT22;11275;52.488;13.462;2023-02-08T21:51:39;-0.40;99.90
22212;DHT22;11275;52.488;13.462;2023-02-08T21:54:25;-0.40;99.90
22212;DHT22;11275;52.488;13.462;2023-02-08T21:57:07;-0.40;99.90
22212;DHT22;11275;52.488;13.462;2023-02-08T21:59:33;-0.30;99.90
22212;DHT22;11275;52.488;13.462;2023-02-08T22:02:01;-0.30;99.90
22212;DHT22;11275;52.488;13.462;2023-02-08T22:04:27;-0.30;99.90
22212;DHT22;11275;52.488;13.462;2023-02-08T22:06:52;-0.30;99.90
22212;DHT22;11275;52.488;13.462;2023-02-08T22:09:18;-0.20;99.90
22212;DHT22;11275;52.488;13.462;2023-02-08T22:11:45;-0.20;99.90
22212;DHT22;11275;52.488;13.462;2023-02-08T22:14:11;-0.20;99.90
22212;DHT22;11275;52.488;13.462;2023-02-08T22:16:37;-0.30;99.90
22212;DHT22;11275;52.488;13.462;2023-02-08T22:19:03;-0.30;99.90
22212;DHT22;11275;52.488;13.462;2023-02-08T22:21:29;-0.30;99.90
22212;DHT22;11275;52.488;13.462;2023-02-08T22:23:55;-0.30;99.90
22212;DHT22;11275;52.488;13.462;2023-02-08T22:26:20;-0.30;99.90
22212;DHT22;11275;52.488;13.462;2023-02-08T22:28:46;-0.20;99.90
22212;DHT22;11275;52.488;13.462;2023-02-08T22:31:12;-0.20;99.90
22212;DHT22;11275;52.488;13.462;2023-02-08T22:33:38;-0.30;99.90
22212;DHT22;11275;52.488;13.462;2023-02-08T22:36:07;-0.30;99.90
22212;DHT22;11275;52.488;13.462;2023-02-08T22:38:32;-0.30;99.90
22212;DHT22;11275;52.488;13.462;2023-02-08T22:40:58;-0.30;99.90
22212;DHT22;11275;52.488;13.462;2023-02-08T22:43:23;-0.30;99.90
22212;DHT22;11275;52.488;13.462;2023-02-08T22:45:56;-0.30;99.90
22212;DHT22;11275;52.488;13.462;2023-02-08T22:48:22;-0.40;99.90
22212;DHT22;11275;52.488;13.462;2023-02-08T22:50:47;-0.40;99.90
22212;DHT22;11275;52.488;13.462;2023-02-08T22:53:12;-0.40;99.90
22212;DHT22;11275;52.488;13.462;2023-02-08T22:55:38;-0.40;99.90
22212;DHT22;11275;52.488;13.462;2023-02-08T22:58:03;-0.40;99.90
22212;DHT22;11275;52.488;13.462;2023-02-08T23:00:29;-0.40;99.90
22212;DHT22;11275;52.488;13.462;2023-02-08T23:02:54;-0.30;99.90
22212;DHT22;11275;52.488;13.462;2023-02-08T23:05:20;-0.40;99.90
22212;DHT22;11275;52.488;13.462;2023-02-08T23:07:45;-0.40;99.90
22212;DHT22;11275;52.488;13.462;2023-02-08T23:10:11;-0.40;99.90
22212;DHT22;11275;52.488;13.462;2023-02-08T23:12:36;-0.50;99.90
22212;DHT22;11275;52.488;13.462;2023-02-08T23:15:02;-0.50;99.90
22212;DHT22;11275;52.488;13.462;2023-02-08T23:17:28;-0.60;99.90
22212;DHT22;11275;52.488;13.462;2023-02-08T23:19:53;-0.70;99.90
22212;DHT22;11275;52.488;13.462;2023-02-08T23:22:19;-0.70;99.90
22212;DHT22;11275;52.488;13.462;2023-02-08T23:24:45;-0.60;99.90
22212;DHT22;11275;52.488;13.462;2023-02-08T23:27:10;-0.70;99.90
22212;DHT22;11275;52.488;13.462;2023-02-08T23:29:36;-0.60;99.90
22212;DHT22;11275;52.488;13.462;2023-02-08T23:32:01;-0.70;99.90
22212;DHT22;11275;52.488;13.462;2023-02-08T23:34:27;-0.70;99.90
22212;DHT22;11275;52.488;13.462;2023-02-08T23:36:52;-0.70;99.90
22212;DHT22;11275;52.488;13.462;2023-02-08T23:39:18;-0.60;99.90
22212;DHT22;11275;52.488;13.462;2023-02-08T23:41:43;-0.60;99.90
22212;DHT22;11275;52.488;13.462;2023-02-08T23:44:09;-0.70;99.90
22212;DHT22;11275;52.488;13.462;2023-02-08T23:46:35;-0.80;99.90
22212;DHT22;11275;52.488;13.462;2023-02-08T23:49:00;-0.80;99.90
22212;DHT22;11275;52.488;13.462;2023-02-08T23:51:26;-0.80;99.90
22212;DHT22;11275;52.488;13.462;2023-02-08T23:53:51;-0.90;99.90
22212;DHT22;11275;52.488;13.462;2023-02-08T23:58:47;-1.00;99.90
